createdAt,value
2022-11-29T00:02:31.587Z,1.81
2022-11-29T00:05:44.797Z,1.83
2022-11-29T00:08:50.556Z,1.85
2022-11-29T00:12:14.598Z,1.87
2022-11-29T00:15:20.117Z,1.86
2022-11-29T00:18:25.427Z,1.85
2022-11-29T00:21:31.824Z,1.83
2022-11-29T00:24:40.060Z,1.83
2022-11-29T00:27:45.425Z,1.81
2022-11-29T00:30:50.754Z,1.80
2022-11-29T00:33:57.241Z,1.80
2022-11-29T00:37:02.777Z,1.78
2022-11-29T00:40:09.593Z,1.75
2022-11-29T00:43:14.953Z,1.74
2022-11-29T00:46:23.897Z,1.71
2022-11-29T00:49:29.494Z,1.71
2022-11-29T00:52:35.175Z,1.72
2022-11-29T00:55:40.737Z,1.72
2022-11-29T00:58:46.191Z,1.72
2022-11-29T01:01:51.712Z,1.72
2022-11-29T01:04:57.391Z,1.72
2022-11-29T01:08:02.735Z,1.72
2022-11-29T01:11:10.093Z,1.69
2022-11-29T01:14:15.545Z,1.66
2022-11-29T01:17:20.965Z,1.65
2022-11-29T01:20:26.806Z,1.63
2022-11-29T01:23:32.561Z,1.62
2022-11-29T01:26:37.933Z,1.62
2022-11-29T01:29:43.431Z,1.63
2022-11-29T01:32:48.754Z,1.64
2022-11-29T01:35:55.586Z,1.65
2022-11-29T01:39:01.902Z,1.65
2022-11-29T01:42:07.283Z,1.64
2022-11-29T01:45:20.053Z,1.61
2022-11-29T01:48:27.424Z,1.60
2022-11-29T01:51:34.539Z,1.59
2022-11-29T01:54:43.690Z,1.59
2022-11-29T01:57:49.434Z,1.58
2022-11-29T02:00:57.021Z,1.58
2022-11-29T02:04:02.781Z,1.58
2022-11-29T02:07:08.459Z,1.58
2022-11-29T02:10:14.413Z,1.57
2022-11-29T02:13:25.250Z,1.56
2022-11-29T02:16:35.524Z,1.54
2022-11-29T02:19:55.016Z,1.54
2022-11-29T02:23:06.635Z,1.54
2022-11-29T02:26:21.680Z,1.53
2022-11-29T02:29:52.648Z,1.53
2022-11-29T02:33:11.107Z,1.52
2022-11-29T02:36:25.255Z,1.52
2022-11-29T02:39:45.076Z,1.51
2022-11-29T02:43:06.978Z,1.51
2022-11-29T02:46:22.151Z,1.51
2022-11-29T02:49:36.026Z,1.52
2022-11-29T02:52:46.293Z,1.50
2022-11-29T02:55:56.424Z,1.50
2022-11-29T02:59:04.655Z,1.50
2022-11-29T03:02:15.565Z,1.50
2022-11-29T03:05:26.438Z,1.50
2022-11-29T03:08:36.186Z,1.50
2022-11-29T03:11:47.223Z,1.51
2022-11-29T03:14:56.874Z,1.51
2022-11-29T03:18:11.618Z,1.52
2022-11-29T03:21:20.283Z,1.53
2022-11-29T03:24:29.997Z,1.52
2022-11-29T03:27:38.081Z,1.52
2022-11-29T03:30:45.616Z,1.51
2022-11-29T03:33:54.659Z,1.51
2022-11-29T03:37:04.868Z,1.49
2022-11-29T03:40:12.799Z,1.46
2022-11-29T03:43:21.732Z,1.45
2022-11-29T03:46:30.419Z,1.45
2022-11-29T03:49:39.048Z,1.46
2022-11-29T03:52:49.362Z,1.46
2022-11-29T03:55:56.499Z,1.46
2022-11-29T03:59:11.689Z,1.45
2022-11-29T04:02:29.158Z,1.45
2022-11-29T04:05:42.640Z,1.43
2022-11-29T04:08:56.213Z,1.40
2022-11-29T04:12:16.982Z,1.38
2022-11-29T04:15:39.689Z,1.36
2022-11-29T04:18:59.893Z,1.37
2022-11-29T04:22:18.348Z,1.37
2022-11-29T04:25:39.582Z,1.38
2022-11-29T04:29:01.551Z,1.38
2022-11-29T04:32:18.727Z,1.38
2022-11-29T04:35:30.772Z,1.39
2022-11-29T04:38:48.220Z,1.39
2022-11-29T04:42:04.304Z,1.39
2022-11-29T04:45:34.373Z,1.39
2022-11-29T04:48:52.840Z,1.39
2022-11-29T04:52:11.280Z,1.39
2022-11-29T04:55:34.086Z,1.37
2022-11-29T04:58:42.480Z,1.34
2022-11-29T05:01:55.647Z,1.33
2022-11-29T05:05:05.734Z,1.30
2022-11-29T05:08:20.514Z,1.29
2022-11-29T05:11:30.798Z,1.28
2022-11-29T05:14:43.279Z,1.27
2022-11-29T05:17:56.429Z,1.27
2022-11-29T05:21:07.372Z,1.25
2022-11-29T05:24:19.069Z,1.22
2022-11-29T05:27:33.313Z,1.19
2022-11-29T05:30:48.233Z,1.17
2022-11-29T05:34:07.025Z,1.15
2022-11-29T05:37:19.978Z,1.15
2022-11-29T05:40:40.791Z,1.14
2022-11-29T05:43:49.711Z,1.14
2022-11-29T05:46:59.854Z,1.15
2022-11-29T05:50:11.173Z,1.16
2022-11-29T05:53:23.259Z,1.16
2022-11-29T05:56:35.534Z,1.17
2022-11-29T05:59:42.505Z,1.17
2022-11-29T06:02:52.473Z,1.17
2022-11-29T06:06:00.763Z,1.15
2022-11-29T06:09:12.567Z,1.14
2022-11-29T06:12:21.353Z,1.14
2022-11-29T06:15:38.671Z,1.11
2022-11-29T06:18:54.866Z,1.08
2022-11-29T06:22:09.789Z,1.05
2022-11-29T06:25:21.749Z,1.03
2022-11-29T06:28:34.226Z,1.02
2022-11-29T06:31:44.619Z,1.00
2022-11-29T06:34:55.679Z,0.99
2022-11-29T06:38:04.551Z,0.96
2022-11-29T06:41:15.007Z,0.94
2022-11-29T06:44:21.478Z,0.92
2022-11-29T06:47:31.697Z,0.90
2022-11-29T06:50:46.952Z,0.90
2022-11-29T06:53:57.474Z,0.89
2022-11-29T06:57:07.418Z,0.88
2022-11-29T07:00:17.286Z,0.88
2022-11-29T07:03:40.460Z,0.88
2022-11-29T07:06:48.587Z,0.91
2022-11-29T07:09:59.807Z,0.95
2022-11-29T07:13:06.055Z,0.98
2022-11-29T07:16:15.239Z,0.96
2022-11-29T07:19:26.809Z,0.93
2022-11-29T07:22:42.307Z,0.89
2022-11-29T07:25:54.266Z,0.88
2022-11-29T07:29:08.888Z,0.88
2022-11-29T07:32:21.745Z,0.88
2022-11-29T07:35:30.934Z,0.86
2022-11-29T07:38:51.016Z,0.85
2022-11-29T07:42:01.164Z,0.85
2022-11-29T07:45:13.924Z,0.85
2022-11-29T07:48:19.609Z,0.85
2022-11-29T07:51:25.062Z,0.85
2022-11-29T07:54:31.243Z,0.85
2022-11-29T07:57:36.992Z,0.84
2022-11-29T08:00:43.244Z,0.85
2022-11-29T08:03:51.052Z,0.88
2022-11-29T08:06:58.800Z,0.89
2022-11-29T08:10:04.849Z,0.89
2022-11-29T08:13:10.291Z,0.90
2022-11-29T08:16:18.696Z,0.92
2022-11-29T08:19:24.140Z,0.94
2022-11-29T08:22:29.580Z,0.95
2022-11-29T08:25:45.367Z,0.96
2022-11-29T08:28:53.174Z,0.97
2022-11-29T08:31:59.108Z,0.98
2022-11-29T08:35:04.525Z,1.00
2022-11-29T08:38:09.894Z,0.99
2022-11-29T08:41:16.287Z,1.03
2022-11-29T08:44:21.795Z,1.05
2022-11-29T08:47:39.313Z,1.07
2022-11-29T08:50:44.880Z,1.08
2022-11-29T08:53:51.839Z,1.07
2022-11-29T08:57:37.405Z,1.08
2022-11-29T09:00:23.152Z,1.09
2022-11-29T09:03:45.932Z,1.10
2022-11-29T09:06:51.586Z,1.12
2022-11-29T09:09:56.995Z,1.15
2022-11-29T09:13:02.471Z,1.18
2022-11-29T09:16:09.510Z,1.17
2022-11-29T09:19:15.571Z,1.16
2022-11-29T09:22:21.950Z,1.15
2022-11-29T09:25:27.208Z,1.15
2022-11-29T09:28:34.364Z,1.16
2022-11-29T09:31:39.721Z,1.18
2022-11-29T09:34:46.472Z,1.24
2022-11-29T09:37:52.132Z,1.29
2022-11-29T09:40:59.049Z,1.32
2022-11-29T09:44:10.103Z,1.34
2022-11-29T09:47:21.571Z,1.35
2022-11-29T09:50:29.720Z,1.36
2022-11-29T09:53:44.839Z,1.37
2022-11-29T09:56:51.503Z,1.38
2022-11-29T09:59:59.255Z,1.42
2022-11-29T10:03:11.043Z,1.47
2022-11-29T10:06:20.372Z,1.49
2022-11-29T10:09:33.672Z,1.51
2022-11-29T10:12:42.675Z,1.51
2022-11-29T10:15:51.501Z,1.52
2022-11-29T10:18:59.880Z,1.51
2022-11-29T10:22:06.771Z,1.54
2022-11-29T10:25:17.955Z,1.58
2022-11-29T10:28:25.986Z,1.58
2022-11-29T10:31:33.985Z,1.57
2022-11-29T10:34:39.951Z,1.57
2022-11-29T10:38:01.582Z,1.58
2022-11-29T10:41:13.386Z,1.58
2022-11-29T10:44:18.808Z,1.57
2022-11-29T10:47:24.365Z,1.55
2022-11-29T10:50:30.978Z,1.53
2022-11-29T10:53:38.594Z,1.53
2022-11-29T10:56:44.938Z,1.55
2022-11-29T11:00:01.166Z,1.56
2022-11-29T11:03:17.376Z,1.55
2022-11-29T11:06:23.919Z,1.55
2022-11-29T11:09:32.314Z,1.54
2022-11-29T11:12:37.992Z,1.55
2022-11-29T11:15:43.428Z,1.61
2022-11-29T11:18:49.067Z,1.67
2022-11-29T11:21:54.730Z,1.73
2022-11-29T11:25:02.218Z,1.78
2022-11-29T11:28:18.132Z,1.82
2022-11-29T11:31:32.620Z,1.85
2022-11-29T11:34:38.970Z,1.87
2022-11-29T11:37:57.231Z,1.88
2022-11-29T11:41:08.229Z,1.90
2022-11-29T11:44:52.554Z,1.94
2022-11-29T11:47:50.008Z,1.96
2022-11-29T11:50:57.211Z,1.99
2022-11-29T11:54:03.012Z,2.02
2022-11-29T11:57:17.231Z,2.04
2022-11-29T12:01:02.284Z,2.06
2022-11-29T12:04:04.624Z,2.04
2022-11-29T12:07:19.015Z,2.05
2022-11-29T12:10:26.463Z,2.07
2022-11-29T12:13:34.803Z,2.14
2022-11-29T12:16:41.518Z,2.12
2022-11-29T12:19:54.133Z,2.13
2022-11-29T12:23:19.901Z,2.15
2022-11-29T12:26:56.027Z,2.16
2022-11-29T12:29:52.601Z,2.18
2022-11-29T12:33:03.772Z,2.17
2022-11-29T12:36:15.164Z,2.13
2022-11-29T12:39:46.358Z,2.08
2022-11-29T12:42:56.240Z,2.04
2022-11-29T12:46:05.900Z,2.00
2022-11-29T12:49:17.320Z,1.98
2022-11-29T12:52:28.215Z,2.00
2022-11-29T12:55:41.588Z,2.02
2022-11-29T12:58:54.950Z,2.05
2022-11-29T13:02:05.727Z,2.06
2022-11-29T13:05:15.823Z,2.05
2022-11-29T13:08:29.581Z,2.02
2022-11-29T13:11:37.192Z,2.00
2022-11-29T13:14:49.577Z,2.00
2022-11-29T13:17:59.419Z,1.96
2022-11-29T13:21:08.986Z,1.91
2022-11-29T13:24:18.878Z,1.87
2022-11-29T13:27:26.197Z,1.85
2022-11-29T13:30:31.707Z,1.85
2022-11-29T13:33:43.853Z,1.84
2022-11-29T13:36:55.082Z,1.76
2022-11-29T13:40:06.955Z,1.69
2022-11-29T13:43:19.407Z,1.65
2022-11-29T13:46:29.310Z,1.61
2022-11-29T13:50:04.631Z,1.57
2022-11-29T13:53:15.497Z,1.55
2022-11-29T13:56:34.049Z,1.53
2022-11-29T13:59:47.412Z,1.50
2022-11-29T14:02:55.209Z,1.47
2022-11-29T14:06:11.159Z,1.44
2022-11-29T14:09:28.922Z,1.43
2022-11-29T14:12:39.362Z,1.40
2022-11-29T14:15:45.012Z,1.37
2022-11-29T14:19:05.485Z,1.37
2022-11-29T14:22:31.494Z,1.36
2022-11-29T14:25:53.112Z,1.33
2022-11-29T14:28:59.726Z,1.29
2022-11-29T14:32:05.323Z,1.28
2022-11-29T14:35:15.702Z,1.26
2022-11-29T14:38:30.706Z,1.22
2022-11-29T14:41:44.867Z,1.20
2022-11-29T14:44:52.318Z,1.19
2022-11-29T14:47:58.415Z,1.18
2022-11-29T14:51:11.094Z,1.18
2022-11-29T14:54:18.471Z,1.16
2022-11-29T14:57:41.499Z,1.15
2022-11-29T15:01:10.988Z,1.15
2022-11-29T15:04:16.904Z,1.16
2022-11-29T15:07:26.074Z,1.15
2022-11-29T15:10:32.870Z,1.12
2022-11-29T15:13:40.285Z,1.10
2022-11-29T15:17:00.596Z,1.08
2022-11-29T15:20:23.366Z,1.07
2022-11-29T15:23:28.933Z,1.05
2022-11-29T15:26:37.252Z,1.04
2022-11-29T15:29:48.289Z,1.01
2022-11-29T15:32:57.050Z,0.99
2022-11-29T15:36:06.739Z,0.98
2022-11-29T15:39:26.377Z,0.98
2022-11-29T15:42:41.852Z,1.00
2022-11-29T15:45:51.212Z,1.00
2022-11-29T15:48:57.493Z,0.98
2022-11-29T15:52:06.366Z,0.95
2022-11-29T15:55:14.031Z,0.96
2022-11-29T15:58:23.301Z,0.95
2022-11-29T16:01:28.906Z,0.95
2022-11-29T16:04:35.021Z,0.94
2022-11-29T16:07:40.976Z,0.94
2022-11-29T16:10:49.518Z,0.93
2022-11-29T16:14:03.730Z,0.92
2022-11-29T16:17:10.364Z,0.92
2022-11-29T16:20:26.782Z,0.92
2022-11-29T16:23:35.825Z,0.92
2022-11-29T16:26:43.373Z,0.92
2022-11-29T16:29:49.507Z,0.92
2022-11-29T16:32:56.452Z,0.91
2022-11-29T16:36:13.303Z,0.91
2022-11-29T16:39:23.746Z,0.91
2022-11-29T16:42:30.329Z,0.92
2022-11-29T16:45:36.621Z,0.91
2022-11-29T16:48:42.418Z,0.92
2022-11-29T16:51:49.126Z,0.91
2022-11-29T16:54:55.009Z,0.91
2022-11-29T16:58:00.710Z,0.91
2022-11-29T17:01:18.306Z,0.91
2022-11-29T17:04:41.281Z,0.91
2022-11-29T17:07:47.640Z,0.91
2022-11-29T17:10:53.418Z,0.92
2022-11-29T17:13:58.857Z,0.91
2022-11-29T17:17:07.354Z,0.91
2022-11-29T17:20:15.371Z,0.91
2022-11-29T17:23:20.718Z,0.91
2022-11-29T17:26:26.156Z,0.93
2022-11-29T17:29:31.691Z,0.94
2022-11-29T17:32:37.097Z,0.95
2022-11-29T17:35:42.795Z,0.96
2022-11-29T17:38:50.686Z,0.95
2022-11-29T17:41:56.353Z,0.94
2022-11-29T17:45:01.935Z,0.95
2022-11-29T17:48:07.757Z,0.96
2022-11-29T17:51:43.667Z,0.96
2022-11-29T17:54:39.124Z,0.95
2022-11-29T17:57:44.502Z,0.94
2022-11-29T18:00:49.894Z,0.94
2022-11-29T18:03:57.845Z,0.95
2022-11-29T18:07:03.367Z,0.96
2022-11-29T18:10:10.513Z,0.96
2022-11-29T18:13:16.219Z,0.96
2022-11-29T18:16:23.309Z,0.96
2022-11-29T18:19:29.918Z,0.95
2022-11-29T18:22:35.373Z,0.93
2022-11-29T18:25:41.324Z,0.93
2022-11-29T18:28:47.068Z,0.94
2022-11-29T18:31:52.482Z,0.95
2022-11-29T18:34:58.847Z,0.95
2022-11-29T18:38:15.216Z,0.94
2022-11-29T18:41:22.467Z,0.92
2022-11-29T18:44:29.553Z,0.91
2022-11-29T18:47:35.492Z,0.91
2022-11-29T18:50:44.428Z,0.92
2022-11-29T18:53:50.025Z,0.93
2022-11-29T18:56:55.609Z,0.93
2022-11-29T19:00:03.369Z,0.93
2022-11-29T19:03:10.737Z,0.91
2022-11-29T19:06:17.009Z,0.88
2022-11-29T19:09:23.332Z,0.88
2022-11-29T19:12:29.050Z,0.89
2022-11-29T19:15:34.749Z,0.89
2022-11-29T19:18:40.292Z,0.90
2022-11-29T19:21:45.904Z,0.92
2022-11-29T19:24:51.934Z,0.93
2022-11-29T19:27:58.650Z,0.92
2022-11-29T19:31:05.469Z,0.91
2022-11-29T19:34:12.193Z,0.90
2022-11-29T19:37:17.753Z,0.91
2022-11-29T19:40:23.361Z,0.91
2022-11-29T19:43:29.065Z,0.92
2022-11-29T19:46:35.845Z,0.92
2022-11-29T19:49:46.151Z,0.91
2022-11-29T19:52:52.482Z,0.92
2022-11-29T19:55:58.378Z,0.91
2022-11-29T19:59:03.832Z,0.90
2022-11-29T20:02:10.558Z,0.89
2022-11-29T20:05:16.190Z,0.88
2022-11-29T20:08:21.802Z,0.88
2022-11-29T20:11:27.287Z,0.89
2022-11-29T20:14:32.858Z,0.89
2022-11-29T20:17:38.350Z,0.91
2022-11-29T20:20:43.837Z,0.90
2022-11-29T20:23:49.249Z,0.88
2022-11-29T20:26:56.799Z,0.88
2022-11-29T20:30:02.215Z,0.88
2022-11-29T20:33:07.867Z,0.89
2022-11-29T20:36:21.097Z,0.89
2022-11-29T20:39:31.716Z,0.90
2022-11-29T20:42:45.028Z,0.90
2022-11-29T20:45:50.930Z,0.89
2022-11-29T20:48:59.397Z,0.87
2022-11-29T20:52:12.421Z,0.87
2022-11-29T20:55:18.327Z,0.87
2022-11-29T20:58:23.828Z,0.89
2022-11-29T21:01:29.254Z,0.88
2022-11-29T21:04:34.585Z,0.89
2022-11-29T21:07:40.024Z,0.87
2022-11-29T21:10:45.774Z,0.87
2022-11-29T21:13:51.532Z,0.86
2022-11-29T21:16:57.556Z,0.88
2022-11-29T21:20:06.576Z,0.89
2022-11-29T21:23:15.496Z,0.91
2022-11-29T21:26:22.196Z,0.90
2022-11-29T21:29:28.170Z,0.90
2022-11-29T21:32:34.396Z,0.89
2022-11-29T21:35:41.820Z,0.88
2022-11-29T21:38:55.097Z,0.88
2022-11-29T21:42:00.875Z,0.88
2022-11-29T21:45:14.613Z,0.89
2022-11-29T21:48:40.528Z,0.90
2022-11-29T21:51:46.353Z,0.92
2022-11-29T21:54:51.781Z,0.94
2022-11-29T21:57:57.649Z,0.94
2022-11-29T22:01:08.522Z,0.93
2022-11-29T22:04:14.022Z,0.91
2022-11-29T22:07:19.677Z,0.90
2022-11-29T22:10:25.035Z,0.91
2022-11-29T22:13:30.517Z,0.92
2022-11-29T22:16:35.989Z,0.93
2022-11-29T22:19:41.486Z,0.94
2022-11-29T22:22:48.613Z,0.95
2022-11-29T22:25:53.884Z,0.95
2022-11-29T22:28:59.229Z,0.93
2022-11-29T22:32:04.736Z,0.92
2022-11-29T22:35:10.578Z,0.91
2022-11-29T22:38:15.833Z,0.91
2022-11-29T22:41:21.314Z,0.90
2022-11-29T22:44:27.013Z,0.91
2022-11-29T22:47:32.409Z,0.91
2022-11-29T22:50:37.684Z,0.91
2022-11-29T22:53:49.115Z,0.89
2022-11-29T22:56:54.558Z,0.88
2022-11-29T22:59:59.985Z,0.87
2022-11-29T23:03:05.320Z,0.88
2022-11-29T23:06:11.572Z,0.88
2022-11-29T23:09:19.898Z,0.90
2022-11-29T23:12:25.315Z,0.89
2022-11-29T23:15:30.735Z,0.88
2022-11-29T23:18:36.295Z,0.86
2022-11-29T23:21:42.091Z,0.85
2022-11-29T23:24:47.518Z,0.86
2022-11-29T23:27:55.219Z,0.86
2022-11-29T23:31:00.721Z,0.86
2022-11-29T23:34:06.744Z,0.86
2022-11-29T23:37:13.419Z,0.86
2022-11-29T23:40:18.774Z,0.86
2022-11-29T23:43:24.422Z,0.85
2022-11-29T23:46:29.941Z,0.84
2022-11-29T23:49:35.812Z,0.82
2022-11-29T23:52:41.190Z,0.80
2022-11-29T23:55:48.039Z,0.79
2022-11-29T23:58:53.471Z,0.79
